Time;durP1;ratioP1;P1;durP2;ratioP2;P2;SDS_P1;SDS_P2;PMS_P1;PMS_P2;Temp;Humidity;BMP_temperature;BMP_pressure;BME280_temperature;BME280_humidity;BME280_pressure;Samples;Min_cycle;Max_cycle;Signal;HPM_P1;HPM_P2
2022/08/26 00:01:40;;;;;;;16.80;2.65;;;22.80;99.90;;;;;;5091042;28;20885;-65
2022/08/26 00:04:07;;;;;;;12.63;2.47;;;22.80;99.90;;;;;;5111825;28;20177;-63
2022/08/26 00:06:34;;;;;;;10.45;2.63;;;22.80;99.90;;;;;;5092999;28;20173;-64
2022/08/26 00:09:00;;;;;;;12.40;2.67;;;22.80;99.90;;;;;;5098639;28;20189;-63
2022/08/26 00:11:26;;;;;;;12.45;2.38;;;22.80;99.90;;;;;;5093325;28;20165;-63
2022/08/26 00:13:54;;;;;;;14.57;2.65;;;22.80;99.90;;;;;;5080918;28;20182;-65
2022/08/26 00:16:21;;;;;;;11.68;2.85;;;22.90;99.90;;;;;;5099460;28;20235;-66
2022/08/26 00:18:47;;;;;;;12.27;2.67;;;22.80;99.90;;;;;;5093003;28;20221;-63
2022/08/26 00:21:12;;;;;;;12.50;2.70;;;22.90;99.90;;;;;;5074167;28;20177;-63
2022/08/26 00:23:39;;;;;;;11.75;2.67;;;22.90;99.90;;;;;;5094002;28;20630;-63
2022/08/26 00:26:06;;;;;;;7.68;2.40;;;22.80;99.90;;;;;;5084087;28;20242;-64
2022/08/26 00:28:33;;;;;;;10.10;3.10;;;22.90;99.90;;;;;;5108778;28;20269;-64
2022/08/26 00:30:59;;;;;;;10.55;2.13;;;22.80;99.90;;;;;;5097031;28;20180;-63
2022/08/26 00:33:24;;;;;;;11.98;2.58;;;22.80;99.90;;;;;;5097905;28;20579;-64
2022/08/26 00:35:50;;;;;;;7.45;1.98;;;22.80;99.90;;;;;;5096642;28;20190;-62
2022/08/26 00:38:16;;;;;;;9.40;2.13;;;22.70;99.90;;;;;;5072049;28;20712;-63
2022/08/26 00:40:48;;;;;;;8.57;1.90;;;22.70;99.90;;;;;;5115920;28;20181;-63
2022/08/26 00:43:14;;;;;;;11.05;2.40;;;22.70;99.90;;;;;;5097077;28;20185;-63
2022/08/26 00:45:53;;;;;;;7.43;2.15;;;22.70;99.90;;;;;;5095217;28;20268;-63
2022/08/26 00:48:23;;;;;;;10.93;2.10;;;22.60;99.90;;;;;;5097744;28;20220;-63
2022/08/26 00:50:56;;;;;;;11.18;1.98;;;22.60;99.90;;;;;;5098005;28;20324;-63
2022/08/26 00:53:25;;;;;;;14.93;1.90;;;22.60;99.90;;;;;;5100484;28;20181;-63
2022/08/26 00:56:07;;;;;;;14.23;1.80;;;22.60;99.90;;;;;;5093613;28;20182;-63
2022/08/26 00:58:34;;;;;;;8.77;1.80;;;22.60;99.90;;;;;;5097983;28;20284;-65
2022/08/26 01:01:01;;;;;;;10.07;1.85;;;22.60;99.90;;;;;;5109679;28;20185;-64
2022/08/26 01:03:29;;;;;;;6.50;1.55;;;22.50;99.90;;;;;;5098599;28;20232;-63
2022/08/26 01:05:57;;;;;;;7.05;1.48;;;22.50;99.90;;;;;;5095863;28;20182;-63
2022/08/26 01:08:23;;;;;;;12.32;2.05;;;22.50;99.90;;;;;;5090220;28;20184;-63
2022/08/26 01:10:51;;;;;;;6.07;1.65;;;22.50;99.90;;;;;;5116290;28;20173;-64
2022/08/26 01:13:17;;;;;;;9.18;1.83;;;22.40;99.90;;;;;;5099151;28;20181;-63
2022/08/26 01:15:53;;;;;;;11.48;1.88;;;22.40;99.90;;;;;;5099407;28;20651;-64
2022/08/26 01:18:19;;;;;;;9.48;2.03;;;22.40;99.90;;;;;;5104280;28;20204;-63
2022/08/26 01:21:13;;;;;;;11.32;1.95;;;22.30;99.90;;;;;;5115997;28;20173;-64
2022/08/26 01:23:46;;;;;;;8.98;1.98;;;22.40;99.90;;;;;;5078861;28;20250;-63
2022/08/26 01:26:17;;;;;;;11.85;2.35;;;22.40;99.90;;;;;;5095668;28;20180;-63
2022/08/26 01:28:43;;;;;;;12.95;2.20;;;22.40;99.90;;;;;;5096706;28;20599;-65
2022/08/26 01:31:13;;;;;;;10.05;1.60;;;22.40;99.90;;;;;;5115833;28;20260;-63
2022/08/26 01:33:53;;;;;;;10.50;1.88;;;22.30;99.90;;;;;;5093440;28;20185;-66
2022/08/26 01:36:19;;;;;;;9.50;1.63;;;22.30;99.90;;;;;;5081442;28;20208;-66
2022/08/26 01:38:45;;;;;;;7.75;1.60;;;22.30;99.90;;;;;;5101547;28;20248;-64
2022/08/26 01:41:13;;;;;;;11.98;1.52;;;22.30;99.90;;;;;;5115654;28;20177;-63
2022/08/26 01:43:45;;;;;;;8.20;1.98;;;22.30;99.90;;;;;;5099524;28;20594;-63
2022/08/26 01:46:13;;;;;;;8.07;1.77;;;22.30;99.90;;;;;;5095662;28;20208;-66
2022/08/26 01:48:41;;;;;;;9.60;1.98;;;22.30;99.90;;;;;;5095099;28;20208;-63
2022/08/26 01:51:09;;;;;;;8.40;1.98;;;22.30;99.90;;;;;;5084035;28;20293;-63
2022/08/26 01:53:36;;;;;;;14.55;1.90;;;22.20;99.90;;;;;;5095399;28;20221;-64
2022/08/26 01:56:04;;;;;;;7.85;2.30;;;22.20;99.90;;;;;;5095522;27;20182;-64
2022/08/26 01:58:38;;;;;;;7.07;1.73;;;22.20;99.90;;;;;;5083341;28;20699;-63
2022/08/26 02:01:05;;;;;;;7.65;1.80;;;22.20;99.90;;;;;;5110543;28;20182;-63
2022/08/26 02:03:32;;;;;;;6.40;1.88;;;22.20;99.90;;;;;;5110147;28;20181;-66
2022/08/26 02:06:03;;;;;;;9.30;2.28;;;22.20;99.90;;;;;;5095637;28;20624;-66
2022/08/26 02:08:42;;;;;;;13.35;2.20;;;22.20;99.90;;;;;;5070015;28;20256;-63
2022/08/26 02:11:08;;;;;;;9.25;2.30;;;22.10;99.90;;;;;;5114999;28;20185;-63
2022/08/26 02:13:38;;;;;;;9.40;1.80;;;22.20;99.90;;;;;;5112533;28;20178;-64
2022/08/26 02:16:05;;;;;;;6.65;1.73;;;22.10;99.90;;;;;;5109924;28;20177;-64
2022/08/26 02:18:34;;;;;;;8.23;2.20;;;22.10;99.90;;;;;;5096845;27;20209;-66
2022/08/26 02:21:00;;;;;;;7.75;1.95;;;22.10;99.90;;;;;;5093602;28;20239;-66
2022/08/26 02:23:26;;;;;;;12.57;2.45;;;22.20;99.90;;;;;;5093234;28;20181;-64
2022/08/26 02:26:01;;;;;;;5.45;1.88;;;22.20;99.90;;;;;;5115061;28;20173;-63
2022/08/26 02:28:32;;;;;;;11.82;2.72;;;22.20;99.90;;;;;;5098171;28;20180;-64
2022/08/26 02:30:57;;;;;;;14.38;2.22;;;22.20;99.90;;;;;;5114542;28;20239;-63
2022/08/26 02:33:23;;;;;;;16.13;2.35;;;22.20;99.90;;;;;;5112706;28;20189;-64
2022/08/26 02:35:49;;;;;;;11.73;2.08;;;22.10;99.90;;;;;;5113716;28;20181;-64
2022/08/26 02:38:14;;;;;;;8.50;2.20;;;22.10;99.90;;;;;;5099037;27;20687;-66
2022/08/26 02:40:42;;;;;;;9.05;2.05;;;22.20;99.90;;;;;;5103504;28;20602;-64
2022/08/26 02:43:08;;;;;;;7.72;2.10;;;22.10;99.90;;;;;;5093471;28;20191;-64
2022/08/26 02:45:35;;;;;;;10.77;2.30;;;22.10;99.90;;;;;;5111758;28;20239;-64
2022/08/26 02:48:10;;;;;;;6.60;2.10;;;22.10;99.90;;;;;;5103878;28;20197;-64
2022/08/26 02:50:37;;;;;;;11.13;3.00;;;22.10;99.90;;;;;;5094520;28;20602;-64
2022/08/26 02:53:04;;;;;;;7.93;2.22;;;22.10;99.90;;;;;;5098729;28;20594;-63
2022/08/26 02:55:30;;;;;;;7.70;2.10;;;22.10;99.90;;;;;;5075824;28;20222;-63
2022/08/26 02:57:57;;;;;;;7.28;2.05;;;22.10;99.90;;;;;;5098824;28;20468;-64
2022/08/26 03:00:23;;;;;;;12.65;2.05;;;22.10;99.90;;;;;;5095590;28;20693;-64
2022/08/26 03:02:49;;;;;;;10.13;2.08;;;22.10;99.90;;;;;;5084107;28;20235;-64
2022/08/26 03:05:16;;;;;;;7.65;2.28;;;22.10;99.90;;;;;;5075714;28;20571;-63
2022/08/26 03:07:42;;;;;;;8.95;2.30;;;22.10;99.90;;;;;;5093628;28;20190;-64
2022/08/26 03:10:11;;;;;;;9.38;2.30;;;22.10;99.90;;;;;;5078833;28;20205;-64
2022/08/26 03:12:37;;;;;;;5.40;1.80;;;22.10;99.90;;;;;;5098187;28;20209;-64
2022/08/26 03:15:05;;;;;;;10.00;1.75;;;22.10;99.90;;;;;;5102688;28;20189;-63
2022/08/26 03:17:31;;;;;;;7.85;1.35;;;22.10;99.90;;;;;;5093827;28;20209;-66
2022/08/26 03:19:57;;;;;;;6.18;1.23;;;22.20;99.90;;;;;;5078917;28;20259;-64
2022/08/26 03:22:23;;;;;;;7.45;1.20;;;22.20;99.90;;;;;;5095304;28;20265;-63
2022/08/26 03:24:48;;;;;;;5.43;1.13;;;22.10;99.90;;;;;;5092574;28;20665;-63
2022/08/26 03:27:15;;;;;;;7.40;1.40;;;22.10;99.90;;;;;;5082147;28;20214;-63
2022/08/26 03:32:25;;;;;;;7.18;1.30;;;22.10;99.90;;;;;;5092912;28;20227;-63
2022/08/26 03:34:51;;;;;;;6.75;1.20;;;22.00;99.90;;;;;;5093392;28;20178;-63
2022/08/26 03:37:18;;;;;;;8.10;1.30;;;22.00;99.90;;;;;;5093629;28;20217;-63
2022/08/26 03:39:43;;;;;;;5.97;1.10;;;22.00;99.90;;;;;;5090296;28;20651;-64
2022/08/26 03:42:10;;;;;;;10.85;1.50;;;22.00;99.90;;;;;;5105093;28;20205;-63
2022/08/26 03:44:36;;;;;;;6.00;1.35;;;22.00;99.90;;;;;;5104622;28;20182;-63
2022/08/26 03:47:02;;;;;;;8.07;1.48;;;22.00;99.90;;;;;;5110556;28;20636;-64
2022/08/26 03:49:30;;;;;;;6.55;1.40;;;22.00;99.90;;;;;;5100482;28;20246;-64
2022/08/26 03:51:55;;;;;;;6.55;1.38;;;22.00;99.90;;;;;;5092543;28;20221;-63
2022/08/26 03:54:21;;;;;;;4.28;1.33;;;22.00;99.90;;;;;;5092709;28;20177;-63
2022/08/26 03:56:47;;;;;;;5.07;1.33;;;22.00;99.90;;;;;;5099451;28;20617;-63
2022/08/26 03:59:12;;;;;;;4.00;1.30;;;22.00;99.90;;;;;;5074019;28;20969;-64
2022/08/26 04:01:38;;;;;;;7.60;1.40;;;22.00;99.90;;;;;;5096769;27;20184;-65
2022/08/26 04:04:04;;;;;;;5.95;1.50;;;22.00;99.90;;;;;;5092926;28;20181;-63
2022/08/26 04:06:33;;;;;;;7.18;1.55;;;22.00;99.90;;;;;;5103949;27;20250;-65
2022/08/26 04:09:04;;;;;;;6.72;1.40;;;22.00;99.90;;;;;;5100465;27;20696;-63
2022/08/26 04:11:31;;;;;;;11.60;1.75;;;22.00;99.90;;;;;;5090974;27;20737;-63
2022/08/26 04:14:04;;;;;;;12.70;2.00;;;22.00;99.90;;;;;;5081900;28;20188;-63
2022/08/26 04:16:30;;;;;;;9.52;2.15;;;22.00;99.90;;;;;;5080602;28;20186;-63
2022/08/26 04:18:56;;;;;;;8.32;1.98;;;22.00;99.90;;;;;;5084300;27;20213;-64
2022/08/26 04:21:23;;;;;;;7.78;2.20;;;21.90;99.90;;;;;;5103080;27;20185;-63
2022/08/26 04:23:49;;;;;;;6.45;2.00;;;21.90;99.90;;;;;;5105242;28;20208;-63
2022/08/26 04:26:19;;;;;;;9.15;1.70;;;21.90;99.90;;;;;;5120085;28;20165;-63
2022/08/26 04:28:47;;;;;;;9.95;1.95;;;21.90;99.90;;;;;;5100196;28;20193;-63
2022/08/26 04:31:14;;;;;;;5.78;1.40;;;21.90;99.90;;;;;;5081148;27;20300;-63
2022/08/26 04:33:40;;;;;;;8.18;1.63;;;21.80;99.90;;;;;;5086885;28;20188;-63
2022/08/26 04:36:06;;;;;;;11.00;1.88;;;21.90;99.90;;;;;;5119615;28;20510;-62
2022/08/26 04:38:33;;;;;;;10.23;1.40;;;21.80;99.90;;;;;;5105080;27;20302;-62
2022/08/26 04:40:59;;;;;;;9.73;1.60;;;21.80;99.90;;;;;;5118632;27;20586;-62
2022/08/26 04:43:27;;;;;;;7.10;1.60;;;21.80;99.90;;;;;;5100958;27;20523;-62
2022/08/26 04:45:54;;;;;;;7.80;1.52;;;21.80;99.90;;;;;;5115885;28;20182;-62
2022/08/26 04:48:19;;;;;;;7.45;1.80;;;21.80;99.90;;;;;;5099331;28;20362;-62
2022/08/26 04:50:45;;;;;;;7.38;1.70;;;21.80;99.90;;;;;;5104763;27;20711;-62
2022/08/26 04:53:11;;;;;;;8.80;2.13;;;21.80;99.90;;;;;;5103815;27;20308;-63
2022/08/26 04:55:38;;;;;;;11.02;2.30;;;21.80;99.90;;;;;;5086227;27;20181;-64
2022/08/26 04:58:07;;;;;;;9.15;1.88;;;21.80;99.90;;;;;;5094255;28;20749;-63
2022/08/26 05:00:33;;;;;;;10.02;2.10;;;21.80;99.90;;;;;;5100182;27;20200;-65
2022/08/26 05:02:59;;;;;;;14.35;2.72;;;21.80;99.90;;;;;;5098808;27;20217;-63
2022/08/26 05:05:25;;;;;;;15.80;2.30;;;21.80;99.90;;;;;;5100120;27;20209;-62
2022/08/26 05:07:51;;;;;;;10.23;1.90;;;21.80;99.90;;;;;;5099155;27;20270;-62
2022/08/26 05:10:17;;;;;;;6.97;2.20;;;21.70;99.90;;;;;;5113448;28;20641;-62
2022/08/26 05:12:43;;;;;;;9.65;2.08;;;21.70;99.90;;;;;;5105067;27;20226;-62
2022/08/26 05:15:09;;;;;;;9.52;2.35;;;21.70;99.90;;;;;;5087568;28;20185;-62
2022/08/26 05:17:36;;;;;;;13.85;2.30;;;21.70;99.90;;;;;;5104902;28;20294;-62
2022/08/26 05:20:02;;;;;;;6.20;2.08;;;21.70;99.90;;;;;;5095355;28;20177;-61
2022/08/26 05:22:28;;;;;;;10.98;1.70;;;21.70;99.90;;;;;;5094245;28;20238;-60
2022/08/26 05:24:54;;;;;;;15.25;2.65;;;21.70;99.90;;;;;;5111554;28;20181;-60
2022/08/26 05:27:19;;;;;;;10.45;2.00;;;21.70;99.90;;;;;;5095658;28;20559;-61
2022/08/26 05:29:45;;;;;;;16.25;2.30;;;21.70;99.90;;;;;;5098183;28;20181;-63
2022/08/26 05:32:11;;;;;;;9.80;2.08;;;21.70;99.90;;;;;;5096576;28;20197;-61
2022/08/26 05:34:37;;;;;;;11.48;2.10;;;21.70;99.90;;;;;;5100471;28;20189;-60
2022/08/26 05:37:04;;;;;;;7.65;2.17;;;21.70;99.90;;;;;;5091622;28;20186;-60
2022/08/26 05:39:31;;;;;;;6.85;1.65;;;21.60;99.90;;;;;;5093955;28;20636;-62
2022/08/26 05:41:57;;;;;;;7.78;2.00;;;21.60;99.90;;;;;;5106915;28;20184;-59
2022/08/26 05:44:23;;;;;;;15.00;2.42;;;21.60;99.90;;;;;;5100740;27;20182;-60
2022/08/26 05:46:50;;;;;;;7.57;2.35;;;21.60;99.90;;;;;;5100213;28;20198;-59
2022/08/26 05:49:16;;;;;;;9.68;2.00;;;21.60;99.90;;;;;;5096564;28;20284;-62
2022/08/26 05:51:45;;;;;;;8.35;2.22;;;21.70;99.90;;;;;;5094799;27;20771;-61
2022/08/26 05:54:11;;;;;;;11.85;3.10;;;21.60;99.90;;;;;;5102522;28;20173;-59
2022/08/26 05:56:38;;;;;;;9.98;2.03;;;21.60;99.90;;;;;;5085960;28;20276;-61
2022/08/26 05:59:05;;;;;;;9.85;2.10;;;21.60;99.90;;;;;;5099949;27;20205;-62
2022/08/26 06:01:32;;;;;;;10.32;1.90;;;21.70;99.90;;;;;;5094919;28;20552;-61
2022/08/26 06:04:00;;;;;;;7.53;1.80;;;21.70;99.90;;;;;;5113674;28;20929;-59
2022/08/26 06:06:32;;;;;;;6.85;1.42;;;21.70;99.90;;;;;;5090627;28;20196;-60
2022/08/26 06:09:00;;;;;;;8.00;1.45;;;21.70;99.90;;;;;;5110249;28;20325;-59
2022/08/26 06:11:27;;;;;;;6.75;1.60;;;21.70;99.90;;;;;;5113664;28;20326;-61
2022/08/26 06:13:55;;;;;;;8.32;1.75;;;21.70;99.90;;;;;;5099040;28;20256;-63
2022/08/26 06:16:23;;;;;;;14.35;1.92;;;21.70;99.90;;;;;;5093720;28;20181;-65
2022/08/26 06:18:50;;;;;;;8.30;1.85;;;21.70;99.90;;;;;;5095914;28;20260;-62
2022/08/26 06:21:20;;;;;;;7.88;1.95;;;21.70;99.90;;;;;;5095190;28;20196;-60
2022/08/26 06:26:34;;;;;;;5.13;1.55;;;21.70;99.90;;;;;;5095722;28;20177;-62
2022/08/26 06:29:00;;;;;;;10.02;2.22;;;21.70;99.90;;;;;;5080953;28;20188;-60
2022/08/26 06:31:28;;;;;;;7.80;1.55;;;21.60;99.90;;;;;;5111863;28;20177;-59
2022/08/26 06:33:54;;;;;;;8.60;1.50;;;21.60;99.90;;;;;;5094072;28;20664;-59
2022/08/26 06:36:29;;;;;;;8.77;1.90;;;21.60;99.90;;;;;;5108800;28;20193;-60
2022/08/26 06:38:59;;;;;;;7.25;1.60;;;21.60;99.90;;;;;;5094100;28;20296;-59
2022/08/26 06:41:25;;;;;;;9.90;2.00;;;21.60;99.90;;;;;;5093528;28;20657;-61
2022/08/26 06:43:51;;;;;;;13.25;2.33;;;21.60;99.90;;;;;;5093562;28;20241;-60
2022/08/26 06:46:20;;;;;;;11.05;2.20;;;21.60;99.90;;;;;;5095988;28;20186;-61
2022/08/26 06:48:46;;;;;;;10.93;2.28;;;21.60;99.90;;;;;;5093784;28;20186;-64
2022/08/26 06:51:19;;;;;;;9.32;1.85;;;21.60;99.90;;;;;;5087081;28;20221;-64
2022/08/26 06:53:46;;;;;;;7.93;1.77;;;21.60;99.90;;;;;;5094009;28;20174;-67
2022/08/26 06:56:15;;;;;;;7.57;1.73;;;21.70;99.90;;;;;;5093970;28;20178;-63
2022/08/26 06:58:41;;;;;;;6.93;1.65;;;21.70;99.90;;;;;;5095049;28;20201;-67
2022/08/26 07:01:21;;;;;;;9.82;1.52;;;21.70;99.90;;;;;;5093037;28;20178;-65
2022/08/26 07:03:49;;;;;;;8.50;1.92;;;21.70;99.90;;;;;;5104462;28;20185;-64
2022/08/26 07:06:18;;;;;;;11.93;2.60;;;21.70;99.90;;;;;;5109826;28;20576;-65
2022/08/26 07:08:47;;;;;;;14.98;2.72;;;21.70;99.90;;;;;;5076201;28;20645;-64
2022/08/26 07:11:14;;;;;;;12.05;3.30;;;21.70;99.90;;;;;;5078392;28;20235;-62
2022/08/26 07:13:39;;;;;;;16.98;4.10;;;21.70;99.90;;;;;;5095580;28;20189;-64
2022/08/26 07:16:07;;;;;;;12.80;4.20;;;21.70;99.90;;;;;;5103689;28;20255;-61
2022/08/26 07:18:35;;;;;;;13.55;3.30;;;21.70;99.90;;;;;;5094773;28;20225;-64
2022/08/26 07:21:02;;;;;;;12.77;2.45;;;21.70;99.90;;;;;;5075527;28;20313;-64
2022/08/26 07:23:28;;;;;;;10.63;2.35;;;21.70;99.90;;;;;;5094410;28;20190;-64
2022/08/26 07:25:54;;;;;;;8.95;1.90;;;21.60;99.90;;;;;;5094046;28;21120;-64
2022/08/26 07:28:21;;;;;;;7.07;1.95;;;21.60;99.90;;;;;;5072834;28;20262;-64
2022/08/26 07:30:47;;;;;;;9.15;1.52;;;21.60;99.90;;;;;;5092576;28;20186;-63
2022/08/26 07:33:12;;;;;;;6.95;1.70;;;21.60;99.90;;;;;;5093517;28;20201;-65
2022/08/26 07:35:38;;;;;;;5.70;1.70;;;21.60;99.90;;;;;;5092879;28;20637;-65
2022/08/26 07:38:04;;;;;;;11.57;1.58;;;21.50;99.90;;;;;;5094163;28;20308;-63
2022/08/26 07:40:30;;;;;;;5.93;1.40;;;21.50;99.90;;;;;;5094111;28;20194;-65
2022/08/26 07:42:56;;;;;;;6.75;1.73;;;21.60;99.90;;;;;;5092608;27;20189;-65
2022/08/26 07:45:23;;;;;;;9.88;1.60;;;21.60;99.90;;;;;;5111775;28;20193;-65
2022/08/26 07:47:48;;;;;;;4.20;1.20;;;21.60;99.90;;;;;;5109595;28;20257;-64
2022/08/26 07:50:15;;;;;;;10.38;1.60;;;21.60;99.90;;;;;;5092560;28;20707;-65
2022/08/26 07:52:41;;;;;;;7.50;1.17;;;21.60;99.90;;;;;;5101563;28;20197;-65
2022/08/26 07:55:08;;;;;;;5.50;1.00;;;21.60;99.90;;;;;;5075960;28;20200;-65
2022/08/26 07:57:34;;;;;;;8.98;1.23;;;21.60;99.90;;;;;;5093246;28;20224;-65
2022/08/26 08:00:03;;;;;;;5.93;1.30;;;21.50;99.90;;;;;;5099491;28;20663;-65
2022/08/26 08:02:37;;;;;;;5.40;1.10;;;21.60;99.90;;;;;;5092612;28;20710;-65
2022/08/26 08:05:04;;;;;;;4.68;1.20;;;21.60;99.90;;;;;;5105534;28;20177;-65
2022/08/26 08:07:29;;;;;;;7.57;1.40;;;21.70;99.90;;;;;;5111283;28;20254;-65
2022/08/26 08:09:55;;;;;;;5.32;1.23;;;21.70;99.90;;;;;;5103836;28;20206;-65
2022/08/26 08:12:21;;;;;;;9.60;1.48;;;21.70;99.90;;;;;;5110986;28;20185;-65
2022/08/26 08:14:47;;;;;;;3.90;1.25;;;21.70;99.90;;;;;;5109888;28;20198;-65
2022/08/26 08:17:13;;;;;;;7.43;1.25;;;21.80;99.90;;;;;;5093016;28;20174;-65
2022/08/26 08:19:40;;;;;;;4.50;1.33;;;21.90;99.90;;;;;;5092240;28;20186;-65
2022/08/26 08:22:06;;;;;;;9.60;1.50;;;22.00;99.90;;;;;;5091040;28;20184;-65
2022/08/26 08:24:33;;;;;;;8.93;1.50;;;22.00;99.90;;;;;;5074671;28;20543;-65
2022/08/26 08:27:00;;;;;;;9.18;1.42;;;22.10;99.90;;;;;;5074826;28;20747;-64
2022/08/26 08:29:28;;;;;;;4.50;1.10;;;22.10;99.90;;;;;;5092628;28;20182;-64
2022/08/26 08:31:55;;;;;;;4.57;1.10;;;22.10;99.90;;;;;;5099833;28;20182;-64
2022/08/26 08:34:21;;;;;;;6.05;1.33;;;22.10;99.90;;;;;;5092440;28;20634;-64
2022/08/26 08:36:47;;;;;;;6.07;2.00;;;22.10;99.90;;;;;;5074999;28;20214;-65
2022/08/26 08:39:13;;;;;;;9.65;1.80;;;22.10;99.90;;;;;;5103535;28;20244;-63
2022/08/26 08:41:57;;;;;;;7.63;1.10;;;22.20;99.90;;;;;;5079071;28;20193;-64
2022/08/26 08:44:24;;;;;;;8.93;1.33;;;22.20;99.90;;;;;;5107667;28;20193;-65
2022/08/26 08:47:33;;;;;;;8.60;1.50;;;22.20;99.90;;;;;;5107289;28;20193;-65
2022/08/26 08:50:15;;;;;;;6.38;1.60;;;22.30;99.90;;;;;;5079507;28;20189;-64
2022/08/26 08:52:47;;;;;;;7.13;1.50;;;22.30;99.90;;;;;;5095180;28;20608;-66
2022/08/26 08:55:15;;;;;;;8.02;1.52;;;22.30;99.90;;;;;;5110081;28;20208;-65
2022/08/26 08:58:06;;;;;;;8.50;1.60;;;22.20;99.90;;;;;;5093014;28;20227;-66
2022/08/26 09:00:43;;;;;;;12.60;2.22;;;22.20;99.90;;;;;;5088228;28;20185;-65
2022/08/26 09:03:22;;;;;;;6.13;1.60;;;22.10;99.90;;;;;;5096309;28;20196;-65
2022/08/26 09:05:51;;;;;;;10.13;1.70;;;22.00;99.90;;;;;;5112274;28;20193;-65
2022/08/26 09:08:22;;;;;;;9.32;1.73;;;22.00;99.90;;;;;;5097471;27;20204;-65
2022/08/26 09:10:57;;;;;;;6.78;1.50;;;22.00;99.90;;;;;;5110638;28;20271;-65
2022/08/26 09:13:24;;;;;;;7.50;1.70;;;22.00;99.90;;;;;;5082348;28;20182;-65
2022/08/26 09:15:56;;;;;;;8.70;1.70;;;22.00;99.90;;;;;;5112533;28;20181;-65
2022/08/26 09:18:56;;;;;;;10.52;1.90;;;22.00;99.90;;;;;;5096634;27;20208;-65
2022/08/26 09:21:24;;;;;;;8.02;1.60;;;22.00;99.90;;;;;;5109856;27;20185;-65
2022/08/26 09:23:52;;;;;;;9.85;1.88;;;22.00;99.90;;;;;;5112670;28;20185;-65
2022/08/26 09:26:29;;;;;;;11.90;1.83;;;22.10;99.90;;;;;;5096508;28;20217;-65
2022/08/26 09:29:10;;;;;;;11.65;2.45;;;22.10;99.90;;;;;;5079983;28;20208;-65
2022/08/26 09:31:40;;;;;;;9.70;1.90;;;22.10;99.90;;;;;;5095133;27;20173;-65
2022/08/26 09:34:12;;;;;;;8.88;1.70;;;22.10;99.90;;;;;;5096114;28;20519;-65
2022/08/26 09:36:45;;;;;;;7.32;1.80;;;22.20;99.90;;;;;;5095342;28;20234;-64
2022/08/26 09:39:22;;;;;;;8.43;1.80;;;22.30;99.90;;;;;;5096383;28;20650;-65
2022/08/26 09:42:09;;;;;;;15.57;1.75;;;22.40;99.90;;;;;;5076520;28;20200;-65
2022/08/26 09:44:55;;;;;;;7.85;1.85;;;22.40;99.90;;;;;;5096590;28;20260;-65
2022/08/26 09:47:43;;;;;;;7.70;2.45;;;22.40;99.90;;;;;;5089949;28;20636;-64
2022/08/26 09:50:10;;;;;;;7.85;1.95;;;22.40;99.90;;;;;;5094950;28;20209;-65
2022/08/26 09:52:37;;;;;;;10.05;2.03;;;22.40;99.90;;;;;;5094942;28;20197;-65
2022/08/26 09:55:22;;;;;;;7.00;1.58;;;22.40;99.90;;;;;;5077056;28;20190;-65
2022/08/26 09:57:53;;;;;;;14.45;2.83;;;22.50;99.90;;;;;;5101985;28;20207;-65
2022/08/26 10:00:41;;;;;;;16.23;2.03;;;22.40;99.90;;;;;;5097527;28;20185;-65
2022/08/26 10:03:21;;;;;;;7.03;1.98;;;22.50;99.90;;;;;;5100391;28;20177;-65
2022/08/26 10:05:58;;;;;;;6.35;2.03;;;22.50;99.90;;;;;;5094406;28;20188;-65
2022/08/26 10:08:30;;;;;;;11.48;1.80;;;22.60;99.90;;;;;;5092547;28;20551;-65
2022/08/26 10:10:58;;;;;;;7.22;2.17;;;22.60;99.90;;;;;;5094089;27;20648;-65
2022/08/26 10:13:43;;;;;;;10.02;2.08;;;22.60;99.90;;;;;;5102304;28;20169;-65
2022/08/26 10:16:24;;;;;;;8.65;1.80;;;22.60;99.90;;;;;;5096796;28;20182;-65
2022/08/26 10:19:01;;;;;;;11.40;2.00;;;22.60;99.60;;;;;;5094616;28;20213;-65
2022/08/26 10:21:59;;;;;;;9.43;1.90;;;22.60;99.70;;;;;;5109089;27;20299;-65
2022/08/26 10:24:34;;;;;;;8.20;1.80;;;22.60;99.70;;;;;;5111645;28;20518;-65
2022/08/26 10:27:18;;;;;;;8.88;1.80;;;22.60;99.60;;;;;;5094695;28;20197;-64
2022/08/26 10:29:47;;;;;;;12.38;1.90;;;22.60;99.50;;;;;;5106981;27;20644;-64
2022/08/26 10:32:34;;;;;;;8.88;1.73;;;22.60;99.50;;;;;;5094384;28;20603;-64
2022/08/26 10:35:01;;;;;;;8.02;1.80;;;22.60;99.40;;;;;;5059716;28;20184;-64
2022/08/26 10:37:42;;;;;;;5.85;1.75;;;22.60;99.30;;;;;;5094149;27;20719;-64
2022/08/26 10:40:17;;;;;;;9.73;2.05;;;22.70;99.20;;;;;;5093291;28;20178;-66
2022/08/26 10:43:22;;;;;;;8.70;1.95;;;22.70;99.00;;;;;;5104762;28;20201;-66
2022/08/26 10:45:54;;;;;;;6.28;2.05;;;22.70;98.90;;;;;;5091949;28;20196;-65
2022/08/26 10:48:48;;;;;;;8.25;1.90;;;22.70;99.00;;;;;;5097268;28;20176;-66
2022/08/26 10:51:18;;;;;;;7.95;2.10;;;22.70;99.00;;;;;;5094275;28;20218;-66
2022/08/26 10:53:57;;;;;;;7.22;1.80;;;22.70;98.90;;;;;;5096426;28;20226;-66
2022/08/26 10:56:45;;;;;;;7.28;1.65;;;22.80;98.90;;;;;;5076520;28;20178;-66
2022/08/26 10:59:25;;;;;;;10.10;2.03;;;22.90;98.80;;;;;;5102807;28;20205;-65
2022/08/26 11:02:32;;;;;;;6.30;2.00;;;23.00;98.50;;;;;;5109716;28;20255;-63
2022/08/26 11:05:18;;;;;;;6.78;1.60;;;23.10;98.20;;;;;;5044196;28;20183;-65
2022/08/26 11:07:45;;;;;;;7.50;1.67;;;23.20;97.70;;;;;;5033797;28;20190;-65
2022/08/26 11:10:49;;;;;;;6.63;1.73;;;23.30;97.50;;;;;;5084267;28;20664;-65
2022/08/26 11:13:14;;;;;;;8.35;2.28;;;23.30;97.30;;;;;;5104598;28;20206;-64
2022/08/26 11:15:40;;;;;;;5.75;1.83;;;23.30;97.30;;;;;;5077138;28;20241;-65
2022/08/26 11:18:09;;;;;;;7.13;1.60;;;23.30;97.30;;;;;;5080713;28;20197;-66
2022/08/26 11:20:34;;;;;;;8.88;2.10;;;23.40;97.30;;;;;;5093375;28;20624;-66
2022/08/26 11:23:13;;;;;;;11.15;2.45;;;23.40;97.10;;;;;;5100957;28;20173;-66
2022/08/26 11:26:00;;;;;;;11.10;2.40;;;23.50;96.80;;;;;;5084392;28;20230;-65
2022/08/26 11:28:46;;;;;;;10.05;2.30;;;23.40;96.90;;;;;;5098726;28;20260;-66
2022/08/26 11:31:38;;;;;;;5.25;2.00;;;23.50;96.70;;;;;;5113829;28;20206;-66
2022/08/26 11:34:07;;;;;;;8.48;2.05;;;23.50;96.50;;;;;;5089413;28;20682;-65
2022/08/26 11:36:44;;;;;;;7.82;1.85;;;23.40;96.50;;;;;;5100129;28;20253;-65
2022/08/26 11:39:16;;;;;;;8.38;2.38;;;23.30;96.20;;;;;;5097036;28;20400;-65
2022/08/26 11:41:44;;;;;;;9.10;1.88;;;23.40;96.50;;;;;;5077559;28;20273;-64
2022/08/26 11:44:10;;;;;;;8.27;1.73;;;23.40;96.50;;;;;;5092786;28;20178;-64
2022/08/26 11:46:36;;;;;;;9.30;2.00;;;23.40;96.50;;;;;;5094655;28;20196;-65
2022/08/26 11:49:06;;;;;;;10.43;2.97;;;23.40;96.40;;;;;;5093482;28;20283;-65
2022/08/26 11:51:33;;;;;;;8.00;2.17;;;23.40;96.40;;;;;;5093824;28;20224;-65
2022/08/26 11:54:14;;;;;;;8.32;1.60;;;23.40;96.40;;;;;;5113431;28;20184;-64
2022/08/26 11:56:44;;;;;;;6.10;1.65;;;23.40;96.40;;;;;;5071147;28;20188;-65
2022/08/26 11:59:14;;;;;;;4.68;1.27;;;23.50;96.30;;;;;;5101834;28;20257;-65
2022/08/26 12:01:48;;;;;;;5.50;1.40;;;23.50;96.10;;;;;;5097669;28;20181;-65
2022/08/26 12:04:36;;;;;;;12.20;1.77;;;23.60;96.10;;;;;;5096992;28;20174;-66
2022/08/26 12:07:05;;;;;;;10.23;1.90;;;23.60;95.90;;;;;;5096956;28;20185;-66
2022/08/26 12:09:35;;;;;;;8.52;1.65;;;23.60;95.80;;;;;;5058395;28;20181;-67
2022/08/26 12:12:12;;;;;;;8.13;1.60;;;23.60;95.70;;;;;;5076897;28;20174;-66
2022/08/26 12:14:38;;;;;;;7.35;1.40;;;23.50;95.60;;;;;;5092183;28;20228;-66
2022/08/26 12:17:16;;;;;;;9.27;1.92;;;23.40;95.80;;;;;;5063484;28;20600;-67
2022/08/26 12:19:43;;;;;;;8.23;1.60;;;23.30;95.80;;;;;;5094851;28;20189;-67
2022/08/26 12:22:14;;;;;;;9.80;1.70;;;23.30;95.90;;;;;;5085492;28;21686;-67
2022/08/26 12:24:58;;;;;;;6.60;1.58;;;23.30;95.90;;;;;;5093509;28;20181;-67
2022/08/26 12:27:33;;;;;;;13.43;1.98;;;23.20;95.90;;;;;;5095619;28;20173;-67
2022/08/26 12:30:13;;;;;;;7.95;1.60;;;23.30;95.90;;;;;;5096276;28;20659;-66
2022/08/26 12:32:51;;;;;;;9.93;1.88;;;23.30;95.80;;;;;;5096707;28;20177;-66
2022/08/26 12:35:19;;;;;;;11.57;2.00;;;23.50;95.60;;;;;;5094575;28;20181;-66
2022/08/26 12:37:49;;;;;;;11.57;2.17;;;23.60;95.40;;;;;;5099249;28;20235;-67
2022/08/26 12:40:26;;;;;;;6.22;1.63;;;23.80;95.10;;;;;;5062694;28;20185;-66
2022/08/26 12:42:53;;;;;;;7.80;1.85;;;24.00;94.70;;;;;;5092342;28;20177;-66
2022/08/26 12:45:31;;;;;;;11.10;2.90;;;24.20;94.30;;;;;;5103583;28;20212;-66
2022/08/26 12:48:09;;;;;;;5.00;1.63;;;24.40;93.90;;;;;;5084797;28;20263;-66
2022/08/26 12:50:38;;;;;;;8.40;2.00;;;24.60;93.50;;;;;;5111954;28;20714;-66
2022/08/26 12:53:10;;;;;;;6.82;2.10;;;24.80;93.00;;;;;;5101890;28;20272;-65
2022/08/26 12:55:49;;;;;;;8.70;2.22;;;24.90;92.40;;;;;;5097014;28;20177;-65
2022/08/26 12:58:14;;;;;;;7.72;1.63;;;24.90;92.00;;;;;;5096950;27;20656;-66
2022/08/26 13:00:46;;;;;;;4.95;1.50;;;24.90;92.00;;;;;;5110240;28;20188;-64
2022/08/26 13:03:33;;;;;;;7.10;1.80;;;24.80;91.50;;;;;;5084324;28;20263;-66
2022/08/26 13:06:10;;;;;;;10.02;2.63;;;24.80;91.10;;;;;;5095789;27;20176;-63